Terminal Aerodrome Forecast
Issued by NWS

Home | Current Version | Previous Version | Text Only | Print | Product List | Glossary On
Versions: 1 2 3 4 5 6 7 8 9 10 11 12 13 14 15 16 17 18 19 20 21 22 23 24 25 26 27 28 29 30 31 32 33 34 35 36 37 38 39 40 41 42 43 44 45 46 47 48
488
FTUS45 KBOI 081720
TAFMYL
TAF
KMYL 081720Z 0818/0918 VRB03KT P6SM VCFG SCT250
      TEMPO 0818/0819 1/2SM FZFG VV001
     FM081900 VRB03KT P6SM SCT250
     FM090200 00000KT 3/4SM BR VV001
      TEMPO 0902/0904 2SM BR SCT001
     FM090800 00000KT P6SM VCFG SCT001
     FM091100 00000KT 2SM BR SCT001
     FM091500 00000KT 1SM BR OVC001=

USA.gov is the U.S. government's official web portal to all federal, state and local government web resources and services.